sensor_id;sensor_type;location;lat;lon;timestamp;P1;durP1;ratioP1;P2;durP2;ratioP2
47519;SDS011;33252;48.122;11.538;2024-03-08T00:00:33;17.98;;;10.07;;
47519;SDS011;33252;48.122;11.538;2024-03-08T00:02:59;17.05;;;10.18;;
47519;SDS011;33252;48.122;11.538;2024-03-08T00:05:28;18.80;;;11.27;;
47519;SDS011;33252;48.122;11.538;2024-03-08T00:07:53;17.60;;;9.05;;
47519;SDS011;33252;48.122;11.538;2024-03-08T00:10:19;21.23;;;9.75;;
47519;SDS011;33252;48.122;11.538;2024-03-08T00:12:45;18.60;;;9.32;;
47519;SDS011;33252;48.122;11.538;2024-03-08T00:15:12;15.30;;;9.43;;
47519;SDS011;33252;48.122;11.538;2024-03-08T00:17:42;17.52;;;9.93;;
47519;SDS011;33252;48.122;11.538;2024-03-08T00:20:09;20.15;;;9.55;;
47519;SDS011;33252;48.122;11.538;2024-03-08T00:22:35;18.67;;;9.73;;
47519;SDS011;33252;48.122;11.538;2024-03-08T00:25:01;15.48;;;9.30;;
47519;SDS011;33252;48.122;11.538;2024-03-08T00:27:27;20.10;;;9.60;;
47519;SDS011;33252;48.122;11.538;2024-03-08T00:29:55;24.27;;;11.05;;
47519;SDS011;33252;48.122;11.538;2024-03-08T00:32:21;19.23;;;10.63;;
47519;SDS011;33252;48.122;11.538;2024-03-08T00:34:49;18.65;;;8.63;;
47519;SDS011;33252;48.122;11.538;2024-03-08T00:37:16;18.30;;;10.48;;
47519;SDS011;33252;48.122;11.538;2024-03-08T00:39:42;18.35;;;9.70;;
47519;SDS011;33252;48.122;11.538;2024-03-08T00:42:08;18.33;;;10.25;;
47519;SDS011;33252;48.122;11.538;2024-03-08T00:44:34;18.52;;;10.05;;
47519;SDS011;33252;48.122;11.538;2024-03-08T00:46:59;15.73;;;9.18;;
47519;SDS011;33252;48.122;11.538;2024-03-08T00:49:25;19.10;;;9.90;;
47519;SDS011;33252;48.122;11.538;2024-03-08T00:51:50;19.98;;;10.60;;
47519;SDS011;33252;48.122;11.538;2024-03-08T00:54:16;20.33;;;10.40;;
47519;SDS011;33252;48.122;11.538;2024-03-08T00:56:41;21.30;;;11.57;;
47519;SDS011;33252;48.122;11.538;2024-03-08T00:59:07;17.38;;;9.73;;
47519;SDS011;33252;48.122;11.538;2024-03-08T01:01:33;19.00;;;10.55;;
47519;SDS011;33252;48.122;11.538;2024-03-08T01:03:58;21.60;;;10.85;;
47519;SDS011;33252;48.122;11.538;2024-03-08T01:06:24;22.98;;;11.50;;
47519;SDS011;33252;48.122;11.538;2024-03-08T01:08:49;23.73;;;11.98;;
47519;SDS011;33252;48.122;11.538;2024-03-08T01:11:17;20.52;;;10.73;;
47519;SDS011;33252;48.122;11.538;2024-03-08T01:13:43;19.85;;;11.38;;
47519;SDS011;33252;48.122;11.538;2024-03-08T01:16:08;24.55;;;11.50;;
47519;SDS011;33252;48.122;11.538;2024-03-08T01:18:35;21.42;;;10.50;;
47519;SDS011;33252;48.122;11.538;2024-03-08T01:21:00;18.25;;;11.32;;
47519;SDS011;33252;48.122;11.538;2024-03-08T01:23:26;19.95;;;10.70;;
47519;SDS011;33252;48.122;11.538;2024-03-08T01:25:51;21.80;;;12.40;;
47519;SDS011;33252;48.122;11.538;2024-03-08T01:28:22;23.92;;;12.02;;
47519;SDS011;33252;48.122;11.538;2024-03-08T01:30:48;19.13;;;11.38;;
47519;SDS011;33252;48.122;11.538;2024-03-08T01:33:15;21.17;;;11.50;;
47519;SDS011;33252;48.122;11.538;2024-03-08T01:35:40;23.35;;;10.82;;
47519;SDS011;33252;48.122;11.538;2024-03-08T01:38:06;17.25;;;9.88;;
47519;SDS011;33252;48.122;11.538;2024-03-08T01:40:32;21.98;;;11.93;;
47519;SDS011;33252;48.122;11.538;2024-03-08T01:42:57;23.77;;;11.20;;
47519;SDS011;33252;48.122;11.538;2024-03-08T01:45:47;19.98;;;10.40;;
47519;SDS011;33252;48.122;11.538;2024-03-08T01:48:13;26.10;;;11.63;;
47519;SDS011;33252;48.122;11.538;2024-03-08T01:50:42;23.33;;;12.45;;
47519;SDS011;33252;48.122;11.538;2024-03-08T01:53:09;21.73;;;11.93;;
47519;SDS011;33252;48.122;11.538;2024-03-08T01:55:36;22.52;;;12.52;;
47519;SDS011;33252;48.122;11.538;2024-03-08T01:58:03;22.15;;;11.65;;
47519;SDS011;33252;48.122;11.538;2024-03-08T02:00:30;22.33;;;10.23;;
47519;SDS011;33252;48.122;11.538;2024-03-08T02:02:57;24.92;;;12.77;;
47519;SDS011;33252;48.122;11.538;2024-03-08T02:05:23;18.17;;;11.07;;
47519;SDS011;33252;48.122;11.538;2024-03-08T02:07:49;24.02;;;12.63;;
47519;SDS011;33252;48.122;11.538;2024-03-08T02:10:15;20.90;;;12.05;;
47519;SDS011;33252;48.122;11.538;2024-03-08T02:12:40;22.08;;;11.65;;
47519;SDS011;33252;48.122;11.538;2024-03-08T02:15:06;24.40;;;12.10;;
47519;SDS011;33252;48.122;11.538;2024-03-08T02:17:32;23.77;;;12.15;;
47519;SDS011;33252;48.122;11.538;2024-03-08T02:20:01;24.23;;;11.57;;
47519;SDS011;33252;48.122;11.538;2024-03-08T02:22:28;24.48;;;12.43;;
47519;SDS011;33252;48.122;11.538;2024-03-08T02:24:55;25.67;;;12.10;;
47519;SDS011;33252;48.122;11.538;2024-03-08T02:27:24;22.83;;;11.48;;
47519;SDS011;33252;48.122;11.538;2024-03-08T02:29:50;23.80;;;12.57;;
47519;SDS011;33252;48.122;11.538;2024-03-08T02:32:20;23.95;;;13.07;;
47519;SDS011;33252;48.122;11.538;2024-03-08T02:34:49;24.48;;;12.48;;
47519;SDS011;33252;48.122;11.538;2024-03-08T02:37:16;23.10;;;10.30;;
47519;SDS011;33252;48.122;11.538;2024-03-08T02:39:42;24.77;;;12.77;;
47519;SDS011;33252;48.122;11.538;2024-03-08T02:42:08;22.08;;;12.27;;
47519;SDS011;33252;48.122;11.538;2024-03-08T02:44:33;23.30;;;12.73;;
47519;SDS011;33252;48.122;11.538;2024-03-08T02:46:59;21.90;;;11.90;;
47519;SDS011;33252;48.122;11.538;2024-03-08T02:49:25;23.88;;;12.32;;
47519;SDS011;33252;48.122;11.538;2024-03-08T02:51:51;21.77;;;12.63;;
47519;SDS011;33252;48.122;11.538;2024-03-08T02:54:17;23.15;;;12.00;;
47519;SDS011;33252;48.122;11.538;2024-03-08T02:56:44;18.88;;;11.07;;
47519;SDS011;33252;48.122;11.538;2024-03-08T02:59:11;23.88;;;12.82;;
47519;SDS011;33252;48.122;11.538;2024-03-08T03:01:37;27.45;;;13.50;;
47519;SDS011;33252;48.122;11.538;2024-03-08T03:04:04;24.45;;;12.52;;
47519;SDS011;33252;48.122;11.538;2024-03-08T03:06:29;25.75;;;12.60;;
47519;SDS011;33252;48.122;11.538;2024-03-08T03:08:56;21.55;;;11.35;;
47519;SDS011;33252;48.122;11.538;2024-03-08T03:11:22;21.23;;;11.45;;
47519;SDS011;33252;48.122;11.538;2024-03-08T03:13:48;23.15;;;12.65;;
47519;SDS011;33252;48.122;11.538;2024-03-08T03:16:17;24.85;;;11.80;;
47519;SDS011;33252;48.122;11.538;2024-03-08T03:18:46;25.17;;;13.00;;
47519;SDS011;33252;48.122;11.538;2024-03-08T03:21:12;23.42;;;11.68;;
47519;SDS011;33252;48.122;11.538;2024-03-08T03:23:39;23.05;;;11.10;;
47519;SDS011;33252;48.122;11.538;2024-03-08T03:26:05;23.70;;;11.85;;
47519;SDS011;33252;48.122;11.538;2024-03-08T03:28:35;26.45;;;12.75;;
47519;SDS011;33252;48.122;11.538;2024-03-08T03:31:04;26.00;;;12.98;;
47519;SDS011;33252;48.122;11.538;2024-03-08T03:33:32;23.55;;;12.90;;
47519;SDS011;33252;48.122;11.538;2024-03-08T03:36:01;24.88;;;12.77;;
47519;SDS011;33252;48.122;11.538;2024-03-08T03:38:27;23.98;;;14.27;;
47519;SDS011;33252;48.122;11.538;2024-03-08T03:40:53;24.15;;;12.73;;
47519;SDS011;33252;48.122;11.538;2024-03-08T03:43:22;21.30;;;12.50;;
47519;SDS011;33252;48.122;11.538;2024-03-08T03:45:51;24.65;;;13.13;;
47519;SDS011;33252;48.122;11.538;2024-03-08T03:48:16;24.45;;;12.55;;
47519;SDS011;33252;48.122;11.538;2024-03-08T03:50:42;24.90;;;12.90;;
47519;SDS011;33252;48.122;11.538;2024-03-08T03:53:07;27.90;;;12.23;;
47519;SDS011;33252;48.122;11.538;2024-03-08T03:55:33;25.17;;;12.30;;
47519;SDS011;33252;48.122;11.538;2024-03-08T03:57:59;28.30;;;13.05;;
47519;SDS011;33252;48.122;11.538;2024-03-08T04:00:26;24.27;;;12.88;;
47519;SDS011;33252;48.122;11.538;2024-03-08T04:02:52;25.17;;;13.02;;
47519;SDS011;33252;48.122;11.538;2024-03-08T04:05:18;25.73;;;12.93;;
47519;SDS011;33252;48.122;11.538;2024-03-08T04:07:43;28.55;;;14.63;;
47519;SDS011;33252;48.122;11.538;2024-03-08T04:10:10;30.10;;;15.55;;
47519;SDS011;33252;48.122;11.538;2024-03-08T04:12:37;26.33;;;13.38;;
47519;SDS011;33252;48.122;11.538;2024-03-08T04:15:02;28.52;;;14.73;;
47519;SDS011;33252;48.122;11.538;2024-03-08T04:17:29;26.50;;;14.10;;
47519;SDS011;33252;48.122;11.538;2024-03-08T04:19:56;25.30;;;12.85;;
47519;SDS011;33252;48.122;11.538;2024-03-08T04:22:22;28.10;;;13.57;;
47519;SDS011;33252;48.122;11.538;2024-03-08T04:24:47;25.55;;;13.45;;
47519;SDS011;33252;48.122;11.538;2024-03-08T04:27:13;26.88;;;13.65;;
47519;SDS011;33252;48.122;11.538;2024-03-08T04:29:41;26.70;;;13.60;;
47519;SDS011;33252;48.122;11.538;2024-03-08T04:32:07;29.08;;;14.85;;
47519;SDS011;33252;48.122;11.538;2024-03-08T04:34:33;24.83;;;13.57;;
47519;SDS011;33252;48.122;11.538;2024-03-08T04:37:02;28.20;;;13.07;;
47519;SDS011;33252;48.122;11.538;2024-03-08T04:39:29;27.23;;;13.95;;
47519;SDS011;33252;48.122;11.538;2024-03-08T04:41:56;26.20;;;13.88;;
47519;SDS011;33252;48.122;11.538;2024-03-08T04:46:55;25.85;;;12.02;;
47519;SDS011;33252;48.122;11.538;2024-03-08T04:49:20;23.92;;;13.73;;
47519;SDS011;33252;48.122;11.538;2024-03-08T04:51:47;26.75;;;15.57;;
47519;SDS011;33252;48.122;11.538;2024-03-08T04:54:13;30.48;;;14.02;;
47519;SDS011;33252;48.122;11.538;2024-03-08T04:56:39;29.23;;;14.73;;
47519;SDS011;33252;48.122;11.538;2024-03-08T04:59:04;26.73;;;13.85;;
47519;SDS011;33252;48.122;11.538;2024-03-08T05:01:33;28.95;;;13.88;;
47519;SDS011;33252;48.122;11.538;2024-03-08T05:03:58;29.35;;;15.15;;
47519;SDS011;33252;48.122;11.538;2024-03-08T05:06:24;28.52;;;15.63;;
47519;SDS011;33252;48.122;11.538;2024-03-08T05:08:49;26.42;;;14.13;;
47519;SDS011;33252;48.122;11.538;2024-03-08T05:11:15;29.23;;;15.77;;
47519;SDS011;33252;48.122;11.538;2024-03-08T05:13:41;34.13;;;16.52;;
47519;SDS011;33252;48.122;11.538;2024-03-08T05:16:06;32.45;;;14.60;;
47519;SDS011;33252;48.122;11.538;2024-03-08T05:18:32;29.90;;;15.60;;
47519;SDS011;33252;48.122;11.538;2024-03-08T05:20:58;29.33;;;16.00;;
47519;SDS011;33252;48.122;11.538;2024-03-08T05:23:24;32.50;;;16.20;;
47519;SDS011;33252;48.122;11.538;2024-03-08T05:25:49;28.20;;;15.05;;
47519;SDS011;33252;48.122;11.538;2024-03-08T05:28:15;31.92;;;15.68;;
47519;SDS011;33252;48.122;11.538;2024-03-08T05:30:41;30.75;;;16.05;;
47519;SDS011;33252;48.122;11.538;2024-03-08T05:33:06;31.13;;;14.68;;
47519;SDS011;33252;48.122;11.538;2024-03-08T05:35:35;28.83;;;15.45;;
47519;SDS011;33252;48.122;11.538;2024-03-08T05:38:01;34.50;;;16.83;;
47519;SDS011;33252;48.122;11.538;2024-03-08T05:40:27;32.38;;;15.77;;
47519;SDS011;33252;48.122;11.538;2024-03-08T05:42:56;25.55;;;13.65;;
47519;SDS011;33252;48.122;11.538;2024-03-08T05:45:25;32.20;;;15.18;;
47519;SDS011;33252;48.122;11.538;2024-03-08T05:47:50;29.75;;;15.50;;
47519;SDS011;33252;48.122;11.538;2024-03-08T05:50:17;32.85;;;16.38;;
47519;SDS011;33252;48.122;11.538;2024-03-08T05:52:43;30.48;;;16.40;;
47519;SDS011;33252;48.122;11.538;2024-03-08T05:55:08;25.50;;;12.98;;
47519;SDS011;33252;48.122;11.538;2024-03-08T05:57:35;30.02;;;15.20;;
47519;SDS011;33252;48.122;11.538;2024-03-08T06:00:04;30.88;;;15.52;;
47519;SDS011;33252;48.122;11.538;2024-03-08T06:02:31;27.08;;;14.32;;
47519;SDS011;33252;48.122;11.538;2024-03-08T06:04:56;26.45;;;14.85;;
47519;SDS011;33252;48.122;11.538;2024-03-08T06:07:22;29.70;;;15.88;;
47519;SDS011;33252;48.122;11.538;2024-03-08T06:09:47;28.90;;;14.48;;
47519;SDS011;33252;48.122;11.538;2024-03-08T06:12:14;30.63;;;14.52;;
47519;SDS011;33252;48.122;11.538;2024-03-08T06:14:43;31.00;;;15.38;;
47519;SDS011;33252;48.122;11.538;2024-03-08T06:17:09;25.42;;;13.10;;
47519;SDS011;33252;48.122;11.538;2024-03-08T06:19:36;28.08;;;14.60;;
47519;SDS011;33252;48.122;11.538;2024-03-08T06:22:01;30.52;;;14.35;;
47519;SDS011;33252;48.122;11.538;2024-03-08T06:24:30;25.60;;;13.98;;
47519;SDS011;33252;48.122;11.538;2024-03-08T06:26:56;29.80;;;13.27;;
47519;SDS011;33252;48.122;11.538;2024-03-08T06:29:22;25.80;;;13.27;;
47519;SDS011;33252;48.122;11.538;2024-03-08T06:31:48;28.27;;;13.43;;
47519;SDS011;33252;48.122;11.538;2024-03-08T06:34:14;25.42;;;12.50;;
47519;SDS011;33252;48.122;11.538;2024-03-08T06:36:40;27.73;;;13.48;;
47519;SDS011;33252;48.122;11.538;2024-03-08T06:39:06;27.95;;;13.80;;
47519;SDS011;33252;48.122;11.538;2024-03-08T06:41:35;26.15;;;12.73;;
47519;SDS011;33252;48.122;11.538;2024-03-08T06:44:01;27.23;;;13.45;;
47519;SDS011;33252;48.122;11.538;2024-03-08T06:46:27;23.50;;;12.43;;
47519;SDS011;33252;48.122;11.538;2024-03-08T06:48:53;27.92;;;13.82;;
47519;SDS011;33252;48.122;11.538;2024-03-08T06:51:18;26.08;;;13.98;;
47519;SDS011;33252;48.122;11.538;2024-03-08T06:53:44;22.50;;;13.10;;
47519;SDS011;33252;48.122;11.538;2024-03-08T06:56:10;28.45;;;13.80;;
47519;SDS011;33252;48.122;11.538;2024-03-08T06:58:35;25.15;;;12.40;;
47519;SDS011;33252;48.122;11.538;2024-03-08T07:01:02;26.15;;;13.50;;
47519;SDS011;33252;48.122;11.538;2024-03-08T07:03:30;27.10;;;14.85;;
47519;SDS011;33252;48.122;11.538;2024-03-08T07:05:57;25.88;;;14.00;;
47519;SDS011;33252;48.122;11.538;2024-03-08T07:08:23;31.38;;;14.77;;
47519;SDS011;33252;48.122;11.538;2024-03-08T07:10:49;24.45;;;13.27;;
47519;SDS011;33252;48.122;11.538;2024-03-08T07:13:15;23.42;;;13.38;;
47519;SDS011;33252;48.122;11.538;2024-03-08T07:15:41;23.75;;;13.48;;
47519;SDS011;33252;48.122;11.538;2024-03-08T07:18:08;24.77;;;12.40;;
47519;SDS011;33252;48.122;11.538;2024-03-08T07:20:34;26.92;;;13.35;;
47519;SDS011;33252;48.122;11.538;2024-03-08T07:23:00;29.52;;;12.98;;
47519;SDS011;33252;48.122;11.538;2024-03-08T07:25:26;27.83;;;13.38;;
47519;SDS011;33252;48.122;11.538;2024-03-08T07:27:54;25.30;;;13.45;;
47519;SDS011;33252;48.122;11.538;2024-03-08T07:30:21;21.90;;;12.40;;
47519;SDS011;33252;48.122;11.538;2024-03-08T07:33:09;29.35;;;15.00;;
47519;SDS011;33252;48.122;11.538;2024-03-08T07:35:38;23.50;;;11.85;;
47519;SDS011;33252;48.122;11.538;2024-03-08T07:38:05;26.30;;;13.40;;
47519;SDS011;33252;48.122;11.538;2024-03-08T07:40:33;23.73;;;13.38;;
47519;SDS011;33252;48.122;11.538;2024-03-08T07:43:00;26.67;;;14.27;;
47519;SDS011;33252;48.122;11.538;2024-03-08T07:45:27;26.48;;;12.63;;
47519;SDS011;33252;48.122;11.538;2024-03-08T07:47:52;27.30;;;14.07;;
47519;SDS011;33252;48.122;11.538;2024-03-08T07:50:18;26.65;;;13.27;;
47519;SDS011;33252;48.122;11.538;2024-03-08T07:52:44;26.15;;;12.23;;
47519;SDS011;33252;48.122;11.538;2024-03-08T07:55:10;26.77;;;14.43;;
47519;SDS011;33252;48.122;11.538;2024-03-08T07:57:35;22.70;;;12.73;;
47519;SDS011;33252;48.122;11.538;2024-03-08T08:00:03;29.08;;;14.85;;
47519;SDS011;33252;48.122;11.538;2024-03-08T08:02:33;24.08;;;12.50;;
47519;SDS011;33252;48.122;11.538;2024-03-08T08:05:00;23.17;;;13.43;;
47519;SDS011;33252;48.122;11.538;2024-03-08T08:07:26;29.20;;;14.38;;
47519;SDS011;33252;48.122;11.538;2024-03-08T08:09:52;24.45;;;13.63;;
47519;SDS011;33252;48.122;11.538;2024-03-08T08:12:18;26.65;;;13.95;;
47519;SDS011;33252;48.122;11.538;2024-03-08T08:14:43;27.40;;;13.40;;
47519;SDS011;33252;48.122;11.538;2024-03-08T08:17:09;25.50;;;13.52;;
47519;SDS011;33252;48.122;11.538;2024-03-08T08:19:35;25.27;;;13.15;;
47519;SDS011;33252;48.122;11.538;2024-03-08T08:22:01;25.42;;;14.20;;
47519;SDS011;33252;48.122;11.538;2024-03-08T08:24:29;28.88;;;15.13;;
47519;SDS011;33252;48.122;11.538;2024-03-08T08:26:55;25.88;;;13.63;;
47519;SDS011;33252;48.122;11.538;2024-03-08T08:29:20;25.55;;;14.00;;
47519;SDS011;33252;48.122;11.538;2024-03-08T08:31:47;28.15;;;13.95;;
47519;SDS011;33252;48.122;11.538;2024-03-08T08:34:14;26.08;;;12.82;;
47519;SDS011;33252;48.122;11.538;2024-03-08T08:36:41;26.95;;;13.55;;
47519;SDS011;33252;48.122;11.538;2024-03-08T08:39:07;25.67;;;13.82;;
47519;SDS011;33252;48.122;11.538;2024-03-08T08:41:38;28.58;;;14.90;;
47519;SDS011;33252;48.122;11.538;2024-03-08T08:44:04;28.65;;;13.27;;
47519;SDS011;33252;48.122;11.538;2024-03-08T08:46:34;28.98;;;13.93;;
47519;SDS011;33252;48.122;11.538;2024-03-08T08:49:04;28.85;;;13.45;;
47519;SDS011;33252;48.122;11.538;2024-03-08T08:51:30;24.17;;;12.82;;
47519;SDS011;33252;48.122;11.538;2024-03-08T08:53:58;25.02;;;12.85;;
47519;SDS011;33252;48.122;11.538;2024-03-08T08:56:23;23.40;;;12.32;;
47519;SDS011;33252;48.122;11.538;2024-03-08T08:58:50;23.67;;;13.18;;
47519;SDS011;33252;48.122;11.538;2024-03-08T09:01:16;23.92;;;13.32;;
47519;SDS011;33252;48.122;11.538;2024-03-08T09:03:43;28.88;;;15.13;;
47519;SDS011;33252;48.122;11.538;2024-03-08T09:06:11;23.42;;;13.63;;
47519;SDS011;33252;48.122;11.538;2024-03-08T09:08:38;22.55;;;12.60;;
47519;SDS011;33252;48.122;11.538;2024-03-08T09:11:04;22.67;;;12.45;;
47519;SDS011;33252;48.122;11.538;2024-03-08T09:13:30;25.27;;;12.63;;
47519;SDS011;33252;48.122;11.538;2024-03-08T09:15:58;24.05;;;13.27;;
47519;SDS011;33252;48.122;11.538;2024-03-08T09:18:23;22.92;;;12.32;;
47519;SDS011;33252;48.122;11.538;2024-03-08T09:20:49;23.85;;;11.63;;
47519;SDS011;33252;48.122;11.538;2024-03-08T09:23:16;23.17;;;12.68;;
47519;SDS011;33252;48.122;11.538;2024-03-08T09:25:44;23.45;;;12.43;;
47519;SDS011;33252;48.122;11.538;2024-03-08T09:28:10;24.85;;;13.98;;
47519;SDS011;33252;48.122;11.538;2024-03-08T09:30:37;20.98;;;11.13;;
47519;SDS011;33252;48.122;11.538;2024-03-08T09:33:03;24.33;;;12.95;;
47519;SDS011;33252;48.122;11.538;2024-03-08T09:35:29;21.67;;;11.68;;
47519;SDS011;33252;48.122;11.538;2024-03-08T09:37:55;23.90;;;13.35;;
47519;SDS011;33252;48.122;11.538;2024-03-08T09:40:21;23.63;;;12.48;;
47519;SDS011;33252;48.122;11.538;2024-03-08T09:42:49;22.88;;;12.23;;
47519;SDS011;33252;48.122;11.538;2024-03-08T09:45:14;25.65;;;12.25;;
47519;SDS011;33252;48.122;11.538;2024-03-08T09:47:42;22.95;;;11.75;;
47519;SDS011;33252;48.122;11.538;2024-03-08T09:50:09;23.50;;;13.40;;
47519;SDS011;33252;48.122;11.538;2024-03-08T09:52:37;26.02;;;11.75;;
47519;SDS011;33252;48.122;11.538;2024-03-08T09:55:05;25.67;;;13.55;;
47519;SDS011;33252;48.122;11.538;2024-03-08T09:57:32;28.55;;;13.68;;
47519;SDS011;33252;48.122;11.538;2024-03-08T09:59:58;28.13;;;14.30;;
47519;SDS011;33252;48.122;11.538;2024-03-08T10:02:24;34.58;;;16.08;;
47519;SDS011;33252;48.122;11.538;2024-03-08T10:04:51;26.67;;;13.35;;
47519;SDS011;33252;48.122;11.538;2024-03-08T10:07:18;25.10;;;13.43;;
47519;SDS011;33252;48.122;11.538;2024-03-08T10:09:44;23.67;;;13.52;;
47519;SDS011;33252;48.122;11.538;2024-03-08T10:12:15;25.17;;;14.98;;
47519;SDS011;33252;48.122;11.538;2024-03-08T10:14:42;26.83;;;13.40;;
47519;SDS011;33252;48.122;11.538;2024-03-08T10:17:08;26.02;;;13.02;;
47519;SDS011;33252;48.122;11.538;2024-03-08T10:19:33;24.35;;;14.43;;
47519;SDS011;33252;48.122;11.538;2024-03-08T10:21:59;25.70;;;12.43;;
47519;SDS011;33252;48.122;11.538;2024-03-08T10:24:25;23.80;;;12.02;;
47519;SDS011;33252;48.122;11.538;2024-03-08T10:26:58;24.67;;;13.07;;
47519;SDS011;33252;48.122;11.538;2024-03-08T10:29:33;24.45;;;13.63;;
47519;SDS011;33252;48.122;11.538;2024-03-08T10:31:58;25.33;;;12.77;;
47519;SDS011;33252;48.122;11.538;2024-03-08T10:34:24;25.20;;;11.77;;
47519;SDS011;33252;48.122;11.538;2024-03-08T10:36:50;23.35;;;12.93;;
47519;SDS011;33252;48.122;11.538;2024-03-08T10:41:53;23.20;;;12.50;;
47519;SDS011;33252;48.122;11.538;2024-03-08T10:44:29;21.70;;;12.57;;
47519;SDS011;33252;48.122;11.538;2024-03-08T10:49:38;22.00;;;11.80;;
47519;SDS011;33252;48.122;11.538;2024-03-08T10:52:09;20.83;;;12.25;;
47519;SDS011;33252;48.122;11.538;2024-03-08T10:54:37;20.80;;;11.55;;
47519;SDS011;33252;48.122;11.538;2024-03-08T10:57:05;23.35;;;11.52;;
47519;SDS011;33252;48.122;11.538;2024-03-08T10:59:31;21.30;;;11.52;;
47519;SDS011;33252;48.122;11.538;2024-03-08T11:01:58;20.42;;;10.90;;
47519;SDS011;33252;48.122;11.538;2024-03-08T11:04:24;22.45;;;11.57;;
47519;SDS011;33252;48.122;11.538;2024-03-08T11:06:51;19.33;;;10.63;;
47519;SDS011;33252;48.122;11.538;2024-03-08T11:09:29;19.83;;;10.60;;
47519;SDS011;33252;48.122;11.538;2024-03-08T11:14:48;21.13;;;11.45;;
47519;SDS011;33252;48.122;11.538;2024-03-08T11:17:15;20.70;;;10.68;;
47519;SDS011;33252;48.122;11.538;2024-03-08T11:20:03;16.63;;;9.57;;
47519;SDS011;33252;48.122;11.538;2024-03-08T11:22:53;18.77;;;10.68;;
47519;SDS011;33252;48.122;11.538;2024-03-08T11:25:30;23.25;;;11.30;;
47519;SDS011;33252;48.122;11.538;2024-03-08T11:28:10;20.05;;;11.02;;
47519;SDS011;33252;48.122;11.538;2024-03-08T11:30:44;17.98;;;10.43;;
47519;SDS011;33252;48.122;11.538;2024-03-08T11:33:13;21.27;;;11.23;;
47519;SDS011;33252;48.122;11.538;2024-03-08T11:35:39;20.95;;;11.55;;
47519;SDS011;33252;48.122;11.538;2024-03-08T11:38:07;18.48;;;10.43;;
47519;SDS011;33252;48.122;11.538;2024-03-08T11:40:33;21.77;;;10.75;;
47519;SDS011;33252;48.122;11.538;2024-03-08T11:43:00;21.42;;;11.15;;
47519;SDS011;33252;48.122;11.538;2024-03-08T11:45:28;18.67;;;11.00;;
47519;SDS011;33252;48.122;11.538;2024-03-08T11:47:54;18.65;;;9.43;;
47519;SDS011;33252;48.122;11.538;2024-03-08T11:50:20;19.27;;;11.85;;
47519;SDS011;33252;48.122;11.538;2024-03-08T11:52:48;20.70;;;12.68;;
47519;SDS011;33252;48.122;11.538;2024-03-08T11:55:15;18.33;;;10.18;;
47519;SDS011;33252;48.122;11.538;2024-03-08T11:57:40;21.73;;;10.75;;
47519;SDS011;33252;48.122;11.538;2024-03-08T12:00:15;18.65;;;10.25;;
47519;SDS011;33252;48.122;11.538;2024-03-08T12:03:03;17.27;;;9.40;;
47519;SDS011;33252;48.122;11.538;2024-03-08T12:05:30;18.23;;;10.75;;
47519;SDS011;33252;48.122;11.538;2024-03-08T12:07:58;20.98;;;11.98;;
47519;SDS011;33252;48.122;11.538;2024-03-08T12:10:24;16.77;;;10.02;;
47519;SDS011;33252;48.122;11.538;2024-03-08T12:12:51;15.80;;;9.70;;
47519;SDS011;33252;48.122;11.538;2024-03-08T12:15:18;16.80;;;10.35;;
47519;SDS011;33252;48.122;11.538;2024-03-08T12:17:45;23.40;;;11.65;;
47519;SDS011;33252;48.122;11.538;2024-03-08T12:20:25;20.98;;;11.60;;
47519;SDS011;33252;48.122;11.538;2024-03-08T12:22:52;16.73;;;10.50;;
47519;SDS011;33252;48.122;11.538;2024-03-08T12:25:21;21.45;;;11.43;;
47519;SDS011;33252;48.122;11.538;2024-03-08T12:27:47;19.48;;;12.40;;
47519;SDS011;33252;48.122;11.538;2024-03-08T12:35:22;16.85;;;11.05;;
47519;SDS011;33252;48.122;11.538;2024-03-08T12:37:52;17.08;;;10.48;;
47519;SDS011;33252;48.122;11.538;2024-03-08T12:40:19;18.10;;;11.23;;
47519;SDS011;33252;48.122;11.538;2024-03-08T12:42:55;18.80;;;11.50;;
47519;SDS011;33252;48.122;11.538;2024-03-08T12:45:21;16.80;;;9.93;;
47519;SDS011;33252;48.122;11.538;2024-03-08T12:47:49;18.48;;;10.27;;
47519;SDS011;33252;48.122;11.538;2024-03-08T12:50:21;19.10;;;10.05;;
47519;SDS011;33252;48.122;11.538;2024-03-08T12:52:48;15.40;;;9.88;;
47519;SDS011;33252;48.122;11.538;2024-03-08T12:55:14;19.40;;;10.18;;
47519;SDS011;33252;48.122;11.538;2024-03-08T12:57:43;18.90;;;11.43;;
47519;SDS011;33252;48.122;11.538;2024-03-08T13:00:09;17.92;;;10.27;;
47519;SDS011;33252;48.122;11.538;2024-03-08T13:02:44;20.50;;;10.85;;
47519;SDS011;33252;48.122;11.538;2024-03-08T13:05:10;17.25;;;11.05;;
47519;SDS011;33252;48.122;11.538;2024-03-08T13:07:39;16.42;;;10.25;;
47519;SDS011;33252;48.122;11.538;2024-03-08T13:10:05;17.23;;;9.82;;
47519;SDS011;33252;48.122;11.538;2024-03-08T13:12:32;14.52;;;9.73;;
47519;SDS011;33252;48.122;11.538;2024-03-08T13:14:58;14.98;;;9.73;;
47519;SDS011;33252;48.122;11.538;2024-03-08T13:17:23;15.70;;;11.10;;
47519;SDS011;33252;48.122;11.538;2024-03-08T13:19:49;17.83;;;10.95;;
47519;SDS011;33252;48.122;11.538;2024-03-08T13:22:14;18.88;;;12.50;;
47519;SDS011;33252;48.122;11.538;2024-03-08T13:24:44;19.08;;;12.18;;
47519;SDS011;33252;48.122;11.538;2024-03-08T13:27:10;17.00;;;11.70;;
47519;SDS011;33252;48.122;11.538;2024-03-08T13:29:47;15.35;;;10.55;;
47519;SDS011;33252;48.122;11.538;2024-03-08T13:32:17;14.05;;;9.27;;
47519;SDS011;33252;48.122;11.538;2024-03-08T13:34:45;13.73;;;10.30;;
47519;SDS011;33252;48.122;11.538;2024-03-08T13:37:12;13.38;;;10.43;;
47519;SDS011;33252;48.122;11.538;2024-03-08T13:39:41;12.80;;;9.38;;
47519;SDS011;33252;48.122;11.538;2024-03-08T13:42:09;13.40;;;10.07;;
47519;SDS011;33252;48.122;11.538;2024-03-08T13:44:37;13.68;;;9.27;;
47519;SDS011;33252;48.122;11.538;2024-03-08T13:47:10;14.48;;;10.52;;
47519;SDS011;33252;48.122;11.538;2024-03-08T13:49:37;12.80;;;9.85;;
47519;SDS011;33252;48.122;11.538;2024-03-08T13:52:03;14.80;;;12.07;;
47519;SDS011;33252;48.122;11.538;2024-03-08T13:54:29;19.10;;;13.13;;
47519;SDS011;33252;48.122;11.538;2024-03-08T13:56:56;16.75;;;11.57;;
47519;SDS011;33252;48.122;11.538;2024-03-08T13:59:22;16.85;;;10.98;;
47519;SDS011;33252;48.122;11.538;2024-03-08T14:01:49;16.67;;;12.30;;
47519;SDS011;33252;48.122;11.538;2024-03-08T14:04:15;14.38;;;11.23;;
47519;SDS011;33252;48.122;11.538;2024-03-08T14:06:44;15.88;;;12.02;;
47519;SDS011;33252;48.122;11.538;2024-03-08T14:09:10;15.60;;;11.73;;
47519;SDS011;33252;48.122;11.538;2024-03-08T14:11:41;17.80;;;11.37;;
47519;SDS011;33252;48.122;11.538;2024-03-08T14:14:10;14.52;;;11.93;;
47519;SDS011;33252;48.122;11.538;2024-03-08T14:16:39;16.98;;;11.20;;
47519;SDS011;33252;48.122;11.538;2024-03-08T14:19:05;16.80;;;13.35;;
47519;SDS011;33252;48.122;11.538;2024-03-08T14:21:31;17.02;;;12.52;;
47519;SDS011;33252;48.122;11.538;2024-03-08T14:23:57;14.10;;;11.45;;
47519;SDS011;33252;48.122;11.538;2024-03-08T14:26:22;15.95;;;12.70;;